createdAt,value
2023-03-22T00:02:14.125Z,44.55
2023-03-22T00:04:43.078Z,39.67
2023-03-22T00:07:09.947Z,44.67
2023-03-22T00:09:37.192Z,39.40
2023-03-22T00:12:04.465Z,42.55
2023-03-22T00:14:31.241Z,44.97
2023-03-22T00:16:58.388Z,49.78
2023-03-22T00:19:26.343Z,42.70
2023-03-22T00:21:53.490Z,36.50
2023-03-22T00:24:21.167Z,39.50
2023-03-22T00:26:48.339Z,40.70
2023-03-22T00:29:16.013Z,42.17
2023-03-22T00:31:43.228Z,45.22
2023-03-22T00:34:11.263Z,44.80
2023-03-22T00:36:38.242Z,39.25
2023-03-22T00:39:04.981Z,46.05
2023-03-22T00:41:32.189Z,44.72
2023-03-22T00:43:59.314Z,44.83
2023-03-22T00:46:26.796Z,43.55
2023-03-22T00:48:54.090Z,43.28
2023-03-22T00:51:21.374Z,41.80
2023-03-22T00:53:52.277Z,32.03
2023-03-22T00:56:19.978Z,38.78
2023-03-22T00:58:46.736Z,36.65
2023-03-22T01:01:13.732Z,36.17
2023-03-22T01:03:42.417Z,43.67
2023-03-22T01:06:09.997Z,38.63
2023-03-22T01:08:39.525Z,37.78
2023-03-22T01:11:07.917Z,35.70
2023-03-22T01:13:37.785Z,35.03
2023-03-22T01:16:06.589Z,34.83
2023-03-22T01:18:35.009Z,38.90
2023-03-22T01:21:02.206Z,37.85
2023-03-22T01:23:29.333Z,35.05
2023-03-22T01:25:56.077Z,40.35
2023-03-22T01:28:25.792Z,30.05
2023-03-22T01:30:54.595Z,39.72
2023-03-22T01:33:22.553Z,39.30
2023-03-22T01:35:49.357Z,40.22
2023-03-22T01:38:16.279Z,47.85
2023-03-22T01:40:43.473Z,33.47
2023-03-22T01:43:17.736Z,32.63
2023-03-22T01:45:47.875Z,37.17
2023-03-22T01:48:46.098Z,38.28
2023-03-22T01:51:18.508Z,37.85
2023-03-22T01:54:31.557Z,40.60
2023-03-22T01:56:59.121Z,33.75
2023-03-22T01:59:27.204Z,38.17
2023-03-22T02:01:54.636Z,38.80
2023-03-22T02:04:24.734Z,33.63
2023-03-22T02:06:56.129Z,36.03
2023-03-22T02:09:23.347Z,38.83
2023-03-22T02:11:59.459Z,36.53
2023-03-22T02:14:42.339Z,32.72
2023-03-22T02:17:42.222Z,36.85
2023-03-22T02:20:15.849Z,36.05
2023-03-22T02:23:14.678Z,40.30
2023-03-22T02:25:59.980Z,40.50
2023-03-22T02:28:45.849Z,35.45
2023-03-22T02:31:39.597Z,39.22
2023-03-22T02:34:18.821Z,36.78
2023-03-22T02:36:58.259Z,38.17
2023-03-22T02:40:13.565Z,37.88
2023-03-22T02:42:43.523Z,40.00
2023-03-22T02:45:22.873Z,29.90
2023-03-22T02:47:59.043Z,39.97
2023-03-22T02:50:38.206Z,32.15
2023-03-22T02:53:34.196Z,39.20
2023-03-22T02:56:23.884Z,42.97
2023-03-22T02:58:54.036Z,38.95
2023-03-22T03:01:36.658Z,45.85
2023-03-22T03:04:09.414Z,37.20
2023-03-22T03:06:41.243Z,37.58
2023-03-22T03:09:14.344Z,46.85
2023-03-22T03:11:41.084Z,39.17
2023-03-22T03:14:08.239Z,37.00
2023-03-22T03:16:37.074Z,34.25
2023-03-22T03:19:33.610Z,38.53
2023-03-22T03:22:04.266Z,34.63
2023-03-22T03:24:46.320Z,33.83
2023-03-22T03:27:49.868Z,39.55
2023-03-22T03:30:49.996Z,35.05
2023-03-22T03:33:20.629Z,33.17
2023-03-22T03:35:53.710Z,37.58
2023-03-22T03:38:26.371Z,40.88
2023-03-22T03:41:01.862Z,34.25
2023-03-22T03:43:29.078Z,33.47
2023-03-22T03:45:56.418Z,34.08
2023-03-22T03:48:31.975Z,35.85
2023-03-22T03:51:01.290Z,34.97
2023-03-22T03:53:28.600Z,35.08
2023-03-22T03:55:55.532Z,35.95
2023-03-22T03:58:22.362Z,32.90
2023-03-22T04:00:50.419Z,32.65
2023-03-22T04:03:17.194Z,36.03
2023-03-22T04:05:44.387Z,34.13
2023-03-22T04:08:11.801Z,37.35
2023-03-22T04:10:39.124Z,35.75
2023-03-22T04:13:06.196Z,38.00
2023-03-22T04:15:34.910Z,34.85
2023-03-22T04:18:01.736Z,35.25
2023-03-22T04:20:29.893Z,40.63
2023-03-22T04:22:58.091Z,37.35
2023-03-22T04:25:30.708Z,38.33
2023-03-22T04:27:57.501Z,34.53
2023-03-22T04:30:25.005Z,31.75
2023-03-22T04:32:51.740Z,35.83
2023-03-22T04:35:18.973Z,38.97
2023-03-22T04:37:45.816Z,36.58
2023-03-22T04:40:17.206Z,33.88
2023-03-22T04:42:45.945Z,40.47
2023-03-22T04:45:14.576Z,41.95
2023-03-22T04:47:41.648Z,35.53
2023-03-22T04:50:09.188Z,35.35
2023-03-22T04:52:36.372Z,34.42
2023-03-22T04:55:03.594Z,37.78
2023-03-22T04:57:30.291Z,31.67
2023-03-22T04:59:57.014Z,38.03
2023-03-22T05:02:24.241Z,36.40
2023-03-22T05:04:51.038Z,42.53
2023-03-22T05:07:18.356Z,38.75
2023-03-22T05:09:45.480Z,33.60
2023-03-22T05:12:12.341Z,41.42
2023-03-22T05:14:39.142Z,43.95
2023-03-22T05:17:05.911Z,38.63
2023-03-22T05:19:33.516Z,42.85
2023-03-22T05:22:02.449Z,41.75
2023-03-22T05:24:30.601Z,43.67
2023-03-22T05:27:01.460Z,39.95
2023-03-22T05:29:28.745Z,37.35
2023-03-22T05:31:55.769Z,37.47
2023-03-22T05:34:23.098Z,37.28
2023-03-22T05:36:51.582Z,36.38
2023-03-22T05:39:19.713Z,38.20
2023-03-22T05:41:46.990Z,40.00
2023-03-22T05:44:13.755Z,36.65
2023-03-22T05:46:41.312Z,44.80
2023-03-22T05:49:08.384Z,39.55
2023-03-22T05:51:42.065Z,36.50
2023-03-22T05:54:10.001Z,39.13
2023-03-22T05:56:36.949Z,38.88
2023-03-22T05:59:04.746Z,37.60
2023-03-22T06:01:33.387Z,36.80
2023-03-22T06:04:01.030Z,42.25
2023-03-22T06:06:28.487Z,32.13
2023-03-22T06:09:04.265Z,38.30
2023-03-22T06:11:42.663Z,34.75
2023-03-22T06:14:11.350Z,37.95
2023-03-22T06:16:39.230Z,31.92
2023-03-22T06:19:06.492Z,34.08
2023-03-22T06:21:33.425Z,30.17
2023-03-22T06:24:00.485Z,34.50
2023-03-22T06:26:28.595Z,35.90
2023-03-22T06:28:55.332Z,32.92
2023-03-22T06:31:22.716Z,31.95
2023-03-22T06:33:49.582Z,32.50
2023-03-22T06:36:16.677Z,32.13
2023-03-22T06:38:46.093Z,34.80
2023-03-22T06:41:13.331Z,36.65
2023-03-22T06:43:40.813Z,32.67
2023-03-22T06:46:07.562Z,26.17
2023-03-22T06:48:34.865Z,26.50
2023-03-22T06:51:01.655Z,30.03
2023-03-22T06:53:28.579Z,25.80
2023-03-22T06:55:55.612Z,25.23
2023-03-22T06:58:23.261Z,25.47
2023-03-22T07:00:50.453Z,22.87
2023-03-22T07:03:17.186Z,23.60
2023-03-22T07:05:45.159Z,23.23
2023-03-22T07:08:12.529Z,24.33
2023-03-22T07:10:39.548Z,25.70
2023-03-22T07:13:06.917Z,26.93
2023-03-22T07:15:34.796Z,20.93
2023-03-22T07:18:02.465Z,19.97
2023-03-22T07:20:29.269Z,25.70
2023-03-22T07:22:56.316Z,23.90
2023-03-22T07:25:24.980Z,26.07
2023-03-22T07:27:51.678Z,24.57
2023-03-22T07:30:18.801Z,22.57
2023-03-22T07:32:46.104Z,25.33
2023-03-22T07:35:12.848Z,21.20
2023-03-22T07:37:39.574Z,21.33
2023-03-22T07:40:07.140Z,21.57
2023-03-22T07:42:34.722Z,21.63
2023-03-22T07:45:01.653Z,23.43
2023-03-22T07:47:40.397Z,22.27
2023-03-22T07:50:08.672Z,24.33
2023-03-22T07:52:35.645Z,23.03
2023-03-22T07:55:02.390Z,23.63
2023-03-22T07:57:29.124Z,20.67
2023-03-22T07:59:57.115Z,21.73
2023-03-22T08:02:24.518Z,23.43
2023-03-22T08:04:55.772Z,22.00
2023-03-22T08:07:25.502Z,20.50
2023-03-22T08:09:52.277Z,21.43
2023-03-22T08:12:19.628Z,21.30
2023-03-22T08:14:50.448Z,21.80
2023-03-22T08:17:19.009Z,27.53
2023-03-22T08:19:46.496Z,23.10
2023-03-22T08:22:13.763Z,32.07
2023-03-22T08:24:40.896Z,23.77
2023-03-22T08:27:07.646Z,21.93
2023-03-22T08:29:35.126Z,26.90
2023-03-22T08:32:03.672Z,23.73
2023-03-22T08:34:31.752Z,24.70
2023-03-22T08:36:58.748Z,25.13
2023-03-22T08:39:26.224Z,27.70
2023-03-22T08:41:53.017Z,36.07
2023-03-22T08:44:19.783Z,26.13
2023-03-22T08:46:46.925Z,41.90
2023-03-22T08:49:14.985Z,20.67
2023-03-22T08:51:42.118Z,25.47
2023-03-22T08:54:08.932Z,22.20
2023-03-22T08:56:38.453Z,37.03
2023-03-22T08:59:07.019Z,27.60
2023-03-22T09:01:34.958Z,27.93
2023-03-22T09:04:03.044Z,16.80
2023-03-22T09:06:30.383Z,19.47
2023-03-22T09:08:57.617Z,23.30
2023-03-22T09:11:24.488Z,17.10
2023-03-22T09:13:51.872Z,17.03
2023-03-22T09:16:19.495Z,18.27
2023-03-22T09:18:46.256Z,23.93
2023-03-22T09:21:13.110Z,17.03
2023-03-22T09:23:40.297Z,16.20
2023-03-22T09:26:09.356Z,18.43
2023-03-22T09:28:37.006Z,15.07
2023-03-22T09:31:11.007Z,17.20
2023-03-22T09:33:41.372Z,17.50
2023-03-22T09:36:09.479Z,13.67
2023-03-22T09:38:38.362Z,12.63
2023-03-22T09:41:28.036Z,16.30
2023-03-22T09:43:59.498Z,15.27
2023-03-22T09:46:42.833Z,12.27
2023-03-22T09:49:52.621Z,11.03
2023-03-22T09:52:20.836Z,14.70
2023-03-22T09:54:48.151Z,12.60
2023-03-22T09:57:26.803Z,7.97
2023-03-22T09:59:53.856Z,7.70
2023-03-22T10:02:39.618Z,11.20
2023-03-22T10:05:37.207Z,14.57
2023-03-22T10:08:16.082Z,23.93
2023-03-22T10:10:43.243Z,13.03
2023-03-22T10:13:39.635Z,17.33
2023-03-22T10:16:12.740Z,11.93
2023-03-22T10:18:47.299Z,12.90
2023-03-22T10:21:17.549Z,15.40
2023-03-22T10:24:18.228Z,11.93
2023-03-22T10:26:50.002Z,13.20
2023-03-22T10:29:19.520Z,16.57
2023-03-22T10:31:46.685Z,13.03
2023-03-22T10:34:21.873Z,11.40
2023-03-22T10:36:51.896Z,16.63
2023-03-22T10:39:30.164Z,9.97
2023-03-22T10:42:00.424Z,10.30
2023-03-22T10:44:30.402Z,11.83
2023-03-22T10:47:07.190Z,10.57
2023-03-22T10:49:39.900Z,12.93
2023-03-22T10:52:22.023Z,11.77
2023-03-22T10:54:49.207Z,12.47
2023-03-22T10:57:15.931Z,18.70
2023-03-22T10:59:48.705Z,16.97
2023-03-22T11:02:22.817Z,13.17
2023-03-22T11:04:52.702Z,15.10
2023-03-22T11:07:34.835Z,13.63
2023-03-22T11:10:13.386Z,13.50
2023-03-22T11:12:46.510Z,11.90
2023-03-22T11:15:40.690Z,14.13
2023-03-22T11:18:13.162Z,14.90
2023-03-22T11:20:42.903Z,20.40
2023-03-22T11:23:18.489Z,12.90
2023-03-22T11:25:48.482Z,14.60
2023-03-22T11:28:29.032Z,14.20
2023-03-22T11:31:11.067Z,14.60
2023-03-22T11:33:44.685Z,16.10
2023-03-22T11:36:19.060Z,21.27
2023-03-22T11:38:47.375Z,22.53
2023-03-22T11:41:25.346Z,16.33
2023-03-22T11:44:02.297Z,21.87
2023-03-22T11:46:30.789Z,18.13
2023-03-22T11:49:01.819Z,16.83
2023-03-22T11:51:43.849Z,15.00
2023-03-22T11:54:34.361Z,13.57
2023-03-22T11:57:05.759Z,12.37
2023-03-22T11:59:44.991Z,24.27
2023-03-22T12:02:27.166Z,11.87
2023-03-22T12:05:02.336Z,20.83
2023-03-22T12:07:31.880Z,10.03
2023-03-22T12:10:08.004Z,10.57
2023-03-22T12:12:44.396Z,12.03
2023-03-22T12:15:22.305Z,10.93
2023-03-22T12:18:14.803Z,9.07
2023-03-22T12:20:58.651Z,10.00
2023-03-22T12:23:30.220Z,10.50
2023-03-22T12:26:02.299Z,12.23
2023-03-22T12:28:40.607Z,9.83
2023-03-22T12:31:19.589Z,11.70
2023-03-22T12:33:58.162Z,9.33
2023-03-22T12:36:42.247Z,11.07
2023-03-22T12:39:19.860Z,11.57
2023-03-22T12:41:50.867Z,10.30
2023-03-22T12:44:26.020Z,11.37
2023-03-22T12:47:05.654Z,8.30
2023-03-22T12:49:41.369Z,8.30
2023-03-22T12:52:46.172Z,6.93
2023-03-22T12:55:25.178Z,7.67
2023-03-22T12:57:54.560Z,9.17
2023-03-22T13:00:44.882Z,12.07
2023-03-22T13:03:17.906Z,8.57
2023-03-22T13:05:47.072Z,8.60
2023-03-22T13:08:20.450Z,9.13
2023-03-22T13:11:21.890Z,7.50
2023-03-22T13:13:48.917Z,7.83
2023-03-22T13:16:22.417Z,8.00
2023-03-22T13:18:52.634Z,6.60
2023-03-22T13:21:26.913Z,6.50
2023-03-22T13:24:02.892Z,7.40
2023-03-22T13:26:50.111Z,6.73
2023-03-22T13:29:19.256Z,5.70
2023-03-22T13:31:51.944Z,6.90
2023-03-22T13:34:21.529Z,8.30
2023-03-22T13:36:56.464Z,6.03
2023-03-22T13:39:28.691Z,8.40
2023-03-22T13:42:17.844Z,9.13
2023-03-22T13:44:46.894Z,19.40
2023-03-22T13:47:46.894Z,10.40
2023-03-22T13:50:18.804Z,8.97
2023-03-22T13:53:23.570Z,10.90
2023-03-22T13:55:51.493Z,10.00
2023-03-22T13:58:38.074Z,9.30
2023-03-22T14:01:13.154Z,7.03
2023-03-22T14:03:46.037Z,12.37
2023-03-22T14:06:31.819Z,6.43
2023-03-22T14:09:06.208Z,6.73
2023-03-22T14:11:49.162Z,6.40
2023-03-22T14:14:24.313Z,10.13
2023-03-22T14:16:58.778Z,13.43
2023-03-22T14:19:29.982Z,10.13
